• Join FlightAware (Why Join?)
  • Login
  • US Flag 
03:04AM EDT


 

Airport Tracker/Info


-or-


 

Live Flight TrackerFlight Track Log ✈ UAL4695 ✈ 17-Sep-2013 ✈ KRDU - KEWR

Flight Track Log - Related Links

Times and Time Zones

All times are in EDT time to prevent confusion due to time zone crossing. See the UAL4695 flight status page for this flight to view local times or setup timezone preferences in your user account.

Time Position Orientation Groundspeed Altitude Reporting Facility
EDT Latitude Longitude Course Direction KTS MPH feet Rate Location/Type
10:38AM 35.8886 -78.7711 353° North 166 191 1,500  Level Washington Center
10:39AM 35.9244 -78.7522 23° Northeast 193 222 3,700 2,640 Climbing Washington Center
10:40AM 35.9753 -78.7258 23° Northeast 239 275 5,700 2,640 Climbing Washington Center
10:41AM 36.0494 -78.6825 25° Northeast 256 295 9,200 2,880 Climbing Washington Center
10:42AM 36.2036 -78.4983 39° Northeast  Level Estimated
10:42AM 36.1172 -78.6389 27° Northeast 261 300 12,000  Level Washington Center
10:43AM 36.2850 -78.4256 15° North  Level Estimated
10:43AM 36.1831 -78.5925 30° Northeast 267 307 14,300  Level Washington Center
10:44AM 36.3846 -78.4406 353° North  Level FlightAware Approximate
10:44AM 36.2489 -78.5489 28° Northeast 280 322 16,500  Level Washington Center
10:45AM 36.3294 -78.4975 27° Northeast 285 328 18,500 1,980 Climbing Washington Center
10:46AM 36.4056 -78.4539 25° Northeast 290 334 20,500 1,680 Climbing Washington Center
10:47AM 36.4881 -78.4106 23° Northeast 302 348 21,900 1,260 Climbing Washington Center
10:48AM 36.5769 -78.3594 25° Northeast 323 372 23,100 1,380 Climbing Washington Center
10:49AM 36.6697 -78.3108 23° Northeast 344 396 24,700 1,560 Climbing Washington Center
10:50AM 36.7628 -78.2572 25° Northeast 349 402 26,200 1,140 Climbing Washington Center
10:51AM 36.8578 -78.2058 23° Northeast 362 417 27,000 360 Climbing Washington Center
10:52AM 36.9361 -78.1592 25° Northeast 368 423 27,000  Level Washington Center
10:53AM 37.0522 -78.0953 24° Northeast 368 423 27,000  Level Washington Center
10:54AM 37.1492 -78.0414 24° Northeast 368 423 27,000  Level Washington Center
10:55AM 37.2461 -77.9894 23° Northeast 373 429 27,000  Level Washington Center
10:56AM 37.3411 -77.9350 24° Northeast 373 429 27,000  Level Washington Center
10:57AM 37.4381 -77.8806 24° Northeast 373 429 27,000  Level Washington Center
10:58AM 37.5353 -77.8231 25° Northeast 373 429 27,000  Level Washington Center
10:59AM 37.6200 -77.7469 35° Northeast 373 429 27,000  Level Washington Center
11:00AM 37.7047 -77.6681 36° Northeast 373 429 27,000  Level Washington Center
11:01AM 37.7917 -77.5917 35° Northeast 373 429 27,000  Level Washington Center
11:02AM 37.8764 -77.5150 36° Northeast 373 429 27,000  Level Washington Center
11:03AM 37.9608 -77.4353 37° Northeast 373 429 27,000  Level Washington Center
11:04AM 38.0350 -77.3686 35° Northeast 368 423 27,000  Level Washington Center
11:05AM 38.1194 -77.2889 37° Northeast 363 418 27,000  Level Washington Center
11:06AM 38.2125 -77.2064 35° Northeast 376 433 27,000  Level Washington Center
11:07AM 38.3117 -77.1158 36° Northeast 414 476 27,000  Level Washington Center
11:08AM 38.4086 -77.0250 36° Northeast 435 501 27,000  Level Washington Center
11:09AM 38.5056 -76.9342 36° Northeast 435 501 27,000  Level Washington Center
11:10AM 38.6003 -76.8483 35° Northeast 430 495 27,000  Level Washington Center
11:11AM 38.6931 -76.7567 38° Northeast 425 489 27,000  Level Washington Center
11:12AM 38.7772 -76.6622 41° Northeast 414 476 27,000  Level Washington Center
11:13AM 38.8572 -76.5700 42° Northeast 393 452 27,000  Level Washington Center
11:14AM 38.9392 -76.4775 41° Northeast 386 444 27,000  Level Washington Center
11:15AM 39.0211 -76.3825 42° Northeast 386 444 27,000  Level Washington Center
11:16AM 39.1031 -76.2844 43° Northeast 386 444 27,000  Level Washington Center
11:17AM 39.1850 -76.1914 41° Northeast 386 444 27,000 -120 Level Washington Center
11:18AM 39.2667 -76.0983 41° Northeast 391 450 26,800 -600 Descending Washington Center
11:19AM 39.3461 -76.0050 42° Northeast 391 450 25,900 -1,020 Descending Washington Center
11:20AM 39.4278 -75.9114 42° Northeast 391 450 24,800 -1,140 Descending Washington Center
11:21AM 39.5031 -75.8175 44° Northeast 385 443 23,700 -1,200 Descending Washington Center
11:22AM 39.5803 -75.7261 42° Northeast 374 430 22,500 -1,260 Descending Washington Center
11:23AM 39.6553 -75.6372 42° Northeast 369 425 21,300 -1,200 Descending Washington Center
11:24AM 39.7322 -75.5456 42° Northeast 369 425 20,100 -1,380 Descending Washington Center
11:25AM 39.8053 -75.4592 42° Northeast 369 425 18,600 -1,380 Descending Washington Center
11:26AM 39.8739 -75.3753 43° Northeast 352 405 17,400 -1,560 Descending Washington Center
11:27AM 39.9403 -75.2939 43° Northeast 337 388 15,500 -1,920 Descending Washington Center
11:28AM 40.0047 -75.2150 43° Northeast 325 374 13,600 -1,740 Descending Washington Center
11:29AM 40.0669 -75.1361 44° Northeast 310 357 12,100 -1,380 Descending Washington Center
11:30AM 40.1333 -75.0667 39° Northeast 294 338 11,100 -1,260 Descending New York TRACON
11:31AM 40.1833 -75.0000 46° Northeast 256 295 9,700 -1,440 Descending New York TRACON
11:32AM 40.2333 -74.9333 45° Northeast 272 313 8,100 -900 Descending New York TRACON
11:33AM 40.2833 -74.8667 45° Northeast 258 297 8,000 -180 Descending New York TRACON
11:34AM 40.3333 -74.7833 52° Northeast 264 304 7,800 -660 Descending New York TRACON
11:35AM 40.3667 -74.7167 57° Northeast 269 310 6,800 -1,080 Descending New York TRACON
11:36AM 40.3500 -74.6167 102° East 270 311 5,800 -900 Descending New York TRACON
11:37AM 40.3333 -74.5333 105° East 234 269 5,000 -780 Descending New York TRACON
11:38AM 40.3167 -74.4667 108° East 200 230 4,200 -960 Descending New York TRACON
11:39AM 40.3333 -74.4000 72° East 204 235 3,100 -600 Descending New York TRACON
11:40AM 40.3833 -74.3667 27° Northeast 189 217 3,000  Descending New York TRACON
11:41AM 40.4167 -74.3333 37° Northeast 169 194 3,100  Climbing New York TRACON
11:42AM 40.4667 -74.3000 27° Northeast 182 209 3,000 -60 Descending New York TRACON
11:43AM 40.5167 -74.2833 14° North 179 206 3,000 -120 Level New York TRACON
11:44AM 40.5500 -74.2500 37° Northeast 173 199 2,800 -600 Descending New York TRACON
11:45AM 40.6000 -74.2333 14° North 174 200 1,900 -900 Descending New York TRACON
11:46AM 40.6333 -74.2000 37° Northeast 148 170 1,100 -780 Descending New York TRACON
11:47AM 40.6667 -74.1833 21° North 130 150 400 -720 Descending New York TRACON